Historyczne dane pomiarowe

Dodano dane terminowe – wersja testowa.

Dane z okresu 1951-2019

Wersja bazy: 1.34 [2019-03-16, lista zmian], aktualizacja planowana na 2019-04-15

Dane meteo z obszaru Polski uzyskane na podstawie danych udostępnionych przez Instytut Meteorologii i Gospodarki Wodnej – Państwowy Instytut Badawczy.

 

Wybierz Datę:    

       

TemperaturaWilgotnośćWiatrCiśnienieOpadyŚniegCzas trwania zjawisk
 Stacja t tx tn tng RH VA  wxwx mslp ppp RRR   cm mm wxwxwxwxwxwxwx
2003-07-16 20.1 27.3 12.0 11.0-- 3.7----- 0.1------------
2003-07-17 21.9 29.0 13.8 12.0-- 2.7----- 0.0------------
2003-07-18 21.5 29.3 14.9 12.5-- 4.3----- 5.1------------
2003-07-19 19.8 22.9 17.3 16.7-- 8.0----- 0.0------------
2003-07-20 21.6 26.8 17.6 16.9-- 5.0----- 0.0------------
2003-07-21 22.1 29.8 13.5 12.5-- 1.7----- 0.0------------
2003-07-22 24.0 30.3 17.9 15.2-- 4.7----- 0.0------------
2003-07-23 21.1 27.8 16.8 14.4-- 5.7----- 0.0------------
2003-07-24 21.7 29.3 14.5 13.0-- 2.0----- 0.0------------
2003-07-25 20.7 29.1 14.0 12.0-- 6.0----- 8.2------------
2003-07-26 21.5 27.3 15.5 14.4-- 4.7----- 0.0------------
2003-07-27 23.5 29.8 17.9 16.6-- 1.7----- 0.0------------
2003-07-28 24.2 31.8 20.1 18.8-- 4.3----- 8.4------------
2003-07-29 18.8 21.0 17.2 17.1-- 8.0----- 0.0------------
2003-07-30 20.9 26.8 17.1 16.9-- 6.7----- 1.1------------
2003-07-31 20.6 27.2 16.5 15.4-- 7.3----- 4.5------------
2003-08-01 21.6 28.5 16.6 15.6-- 5.0----- 0.0------------
2003-08-02 21.0 28.5 15.2 13.0-- 6.3----- 2.8------------
2003-08-03 21.8 28.0 17.3 16.4-- 3.0----- 0.6------------
2003-08-04 22.5 29.5 15.3 13.9-- 4.7----- 0.0------------
2003-08-05 21.6 28.0 15.9 14.4-- 0.7----- 0.0------------
2003-08-06 19.5 26.0 12.1 11.0-- 2.0----- 0.0------------
2003-08-07 18.8 26.2 10.5 8.8-- 1.7----- 0.0------------
2003-08-08 19.7 27.1 9.6 7.1-- 1.0----- 0.0------------
2003-08-09 19.5 27.5 12.9 11.7-- 5.0----- 1.0------------
2003-08-10 18.6 24.5 12.3 10.0-- 2.3----- 0.0------------
2003-08-11 16.0 22.5 9.2 7.6-- 4.3----- 0.0------------
2003-08-12 17.7 25.3 10.1 7.6-- 3.0----- 0.0------------
2003-08-13 24.0 31.7 16.5 14.4-- 6.3----- 0.0------------
2003-08-14 24.7 30.3 21.6 20.0-- 2.7----- 3.0------------
135.4 ms

 

Źródłem pochodzenia danych jest Instytut Meteorologii i Gospodarki Wodnej – Państwowy Instytut Badawczy. Dane Instytutu Meteorologii i Gospodarki Wodnej – Państwowego Instytutu Badawczego zostały przetworzone.

Dane źródłowe można odnaleźć na stronie https://dane.imgw.pl